createdAt,value
2024-02-08T13:13:58.993Z,32.57
2024-02-08T13:14:57.991Z,40.95
2024-02-08T13:15:57.988Z,31.87
2024-02-08T13:16:57.968Z,32.52
2024-02-08T13:17:58.097Z,32.08
2024-02-08T13:18:58.007Z,32.42
2024-02-08T13:19:58.150Z,33.23
2024-02-08T13:20:57.942Z,34.54
2024-02-08T13:21:58.111Z,34.95
2024-02-08T13:22:57.981Z,36.13
2024-02-08T13:23:57.967Z,36.43
2024-02-08T13:24:57.997Z,36.12
2024-02-08T13:25:58.862Z,36.20
2024-02-08T13:26:57.944Z,36.31
2024-02-08T13:27:58.001Z,36.47
2024-02-08T13:28:57.981Z,36.74
2024-02-08T13:29:58.007Z,37.73
2024-02-08T13:30:58.049Z,37.91
2024-02-08T13:31:57.985Z,38.15
2024-02-08T13:32:58.069Z,38.66
2024-02-08T13:33:58.194Z,38.89
2024-02-08T13:34:58.100Z,39.88
2024-02-08T13:35:58.082Z,39.96
2024-02-08T13:36:58.038Z,39.57
2024-02-08T13:37:58.514Z,40.03
2024-02-08T13:38:58.008Z,40.13
2024-02-08T13:40:00.382Z,39.73
2024-02-08T13:40:58.157Z,39.59
2024-02-08T13:41:57.988Z,39.42
2024-02-08T13:42:58.617Z,39.54
2024-02-08T13:43:58.119Z,39.58
2024-02-08T13:44:57.993Z,40.22
2024-02-08T13:45:58.106Z,39.60
2024-02-08T13:46:58.060Z,39.85
2024-02-08T13:47:59.558Z,40.62
2024-02-08T13:48:58.247Z,40.61
2024-02-08T13:49:58.254Z,40.35
2024-02-08T13:50:58.196Z,40.01
2024-02-08T13:51:58.293Z,39.55
2024-02-08T13:52:58.308Z,39.63
2024-02-08T13:53:58.367Z,39.20
2024-02-08T13:54:58.323Z,39.52
2024-02-08T13:55:58.432Z,39.53
2024-02-08T13:56:58.359Z,39.18
2024-02-08T13:57:58.592Z,39.04
2024-02-08T13:58:58.568Z,38.65
2024-02-08T13:59:58.527Z,38.76
2024-02-08T14:00:58.764Z,38.36
2024-02-08T14:01:58.681Z,38.32
2024-02-08T14:02:58.668Z,38.14
2024-02-08T14:03:58.860Z,38.00
2024-02-08T14:04:58.847Z,37.98
2024-02-08T14:05:58.871Z,38.01
2024-02-08T14:06:58.827Z,37.91
2024-02-08T14:07:58.860Z,38.16
2024-02-08T14:08:58.870Z,38.01
2024-02-08T14:09:58.908Z,37.99
2024-02-08T14:10:58.928Z,37.73
2024-02-08T14:11:58.962Z,37.91
2024-02-08T14:12:59.079Z,37.97
2024-02-08T14:13:59.103Z,38.33
2024-02-08T14:14:59.150Z,38.29
2024-02-08T14:15:59.151Z,38.65
2024-02-08T14:16:59.207Z,38.67
2024-02-08T14:17:59.289Z,38.33
2024-02-08T14:18:59.360Z,38.77
2024-02-08T14:19:59.602Z,38.85
2024-02-08T14:20:59.681Z,39.57
2024-02-08T14:21:59.414Z,39.13
2024-02-08T14:22:59.420Z,39.05
2024-02-08T14:23:59.486Z,39.12
2024-02-08T14:25:00.059Z,39.11
2024-02-08T14:25:59.581Z,38.98
2024-02-08T14:26:59.610Z,39.08
2024-02-08T14:27:59.706Z,39.24
2024-02-08T14:28:59.681Z,39.27
2024-02-08T14:29:59.726Z,39.04
2024-02-08T14:30:59.864Z,39.04
2024-02-08T14:31:59.849Z,39.06
2024-02-08T14:32:59.965Z,39.12
2024-02-08T14:33:59.978Z,39.20
2024-02-08T14:35:00.342Z,39.57
2024-02-08T14:36:00.054Z,39.46
2024-02-08T14:37:00.109Z,39.55
2024-02-08T14:38:00.103Z,39.63
2024-02-08T14:39:00.135Z,39.55
2024-02-08T14:40:00.269Z,39.91
2024-02-08T14:41:00.220Z,39.87
2024-02-08T14:42:00.345Z,40.18
2024-02-08T14:43:00.314Z,40.87
2024-02-08T14:44:00.305Z,40.41
2024-02-08T14:45:00.309Z,40.64
2024-02-08T14:46:00.455Z,40.70
2024-02-08T14:47:00.424Z,40.59
2024-02-08T14:48:00.473Z,40.28
2024-02-08T14:49:00.562Z,40.19
2024-02-08T14:50:01.977Z,40.36
2024-02-08T14:51:00.541Z,40.52
2024-02-08T14:52:00.596Z,40.30
2024-02-08T14:53:00.595Z,40.44
2024-02-08T14:54:00.682Z,40.57
2024-02-08T14:55:00.821Z,40.73
2024-02-08T14:56:00.790Z,41.10
2024-02-08T14:57:00.787Z,41.04
2024-02-08T14:58:01.501Z,41.23
2024-02-08T14:59:00.835Z,41.06
2024-02-08T15:00:00.896Z,40.79
2024-02-08T15:01:02.148Z,41.49
2024-02-08T15:02:01.083Z,41.62
2024-02-08T15:03:01.016Z,42.01
2024-02-08T15:04:01.118Z,42.84
2024-02-08T15:05:01.138Z,42.39
2024-02-08T15:06:01.808Z,42.11
2024-02-08T15:07:01.237Z,42.22
2024-02-08T15:08:01.178Z,42.47
2024-02-08T15:09:01.227Z,42.34
2024-02-08T15:10:01.315Z,42.81
2024-02-08T15:11:01.358Z,43.95
2024-02-08T15:12:01.392Z,43.28
2024-02-08T15:13:01.400Z,43.36
2024-02-08T15:14:01.461Z,43.14
2024-02-08T15:15:01.485Z,43.67
2024-02-08T15:16:01.536Z,43.51
2024-02-08T15:17:01.590Z,43.52
2024-02-08T15:18:01.657Z,44.37
2024-02-08T15:19:01.861Z,44.51
2024-02-08T15:20:01.683Z,43.85
2024-02-08T15:21:01.730Z,43.97
2024-02-08T15:22:01.834Z,44.42
2024-02-08T15:23:01.781Z,44.21
2024-02-08T15:24:01.837Z,44.29
2024-02-08T15:25:01.941Z,44.25
2024-02-08T15:26:01.908Z,44.38
2024-02-08T15:27:01.948Z,44.26
2024-02-08T15:28:01.979Z,44.18
2024-02-08T15:29:02.024Z,44.79
2024-02-08T15:30:02.056Z,44.45
2024-02-08T15:31:02.154Z,44.15
2024-02-08T15:32:02.146Z,43.78
2024-02-08T15:33:02.265Z,43.84
2024-02-08T15:34:02.412Z,43.31
2024-02-08T15:35:02.372Z,43.54
2024-02-08T15:36:02.323Z,43.51
2024-02-08T15:37:02.453Z,43.41
2024-02-08T15:38:02.435Z,43.39
2024-02-08T15:39:02.468Z,43.31
2024-02-08T15:40:02.622Z,43.38
2024-02-08T15:41:02.518Z,43.15
2024-02-08T15:42:02.710Z,43.33
2024-02-08T15:43:02.589Z,43.61
2024-02-08T15:44:02.594Z,43.95
2024-02-08T15:45:02.663Z,44.02
2024-02-08T15:46:02.696Z,44.43
2024-02-08T15:47:02.678Z,44.08
2024-02-08T15:48:03.710Z,44.08
2024-02-08T15:49:02.869Z,44.17
2024-02-08T15:50:02.851Z,44.25
2024-02-08T15:51:02.817Z,44.44
2024-02-08T15:52:02.901Z,44.57
2024-02-08T15:53:02.940Z,44.53
2024-02-08T15:54:02.944Z,44.65
2024-02-08T15:55:03.039Z,44.18
2024-02-08T15:56:03.055Z,44.29
2024-02-08T15:57:03.044Z,44.47
2024-02-08T15:58:03.088Z,44.73
2024-02-08T15:59:03.277Z,45.21
2024-02-08T16:00:03.179Z,44.36
2024-02-08T16:01:03.308Z,44.39
2024-02-08T16:02:03.343Z,44.21
2024-02-08T16:03:03.596Z,44.40
2024-02-08T16:04:03.310Z,44.53
2024-02-08T16:05:03.424Z,45.76
2024-02-08T16:06:03.406Z,45.78
2024-02-08T16:07:03.483Z,45.94
2024-02-08T16:08:03.486Z,46.82
2024-02-08T16:09:03.665Z,46.97
2024-02-08T16:10:03.598Z,46.84
2024-02-08T16:11:03.548Z,46.65
2024-02-08T16:12:03.607Z,46.44
2024-02-08T16:13:03.638Z,45.98
2024-02-08T16:14:03.676Z,45.79
2024-02-08T16:15:03.689Z,45.67
2024-02-08T16:16:03.729Z,45.55
2024-02-08T16:17:03.747Z,46.09
2024-02-08T16:18:03.824Z,46.09
2024-02-08T16:19:03.910Z,45.91
2024-02-08T16:20:04.032Z,45.88
2024-02-08T16:21:03.920Z,45.82
2024-02-08T16:22:03.995Z,45.62
2024-02-08T16:23:04.089Z,45.61
2024-02-08T16:24:04.045Z,45.45
2024-02-08T16:25:04.581Z,45.49
2024-02-08T16:26:04.165Z,45.34
2024-02-08T16:27:04.216Z,45.66
2024-02-08T16:28:04.338Z,45.82
2024-02-08T16:29:04.279Z,46.21
2024-02-08T16:30:04.319Z,45.93
2024-02-08T16:31:04.495Z,46.14
2024-02-08T16:32:04.419Z,46.45
2024-02-08T16:33:04.601Z,46.85
2024-02-08T16:34:04.620Z,46.86
2024-02-08T16:35:04.689Z,46.73
2024-02-08T16:36:04.686Z,46.96
2024-02-08T16:37:04.853Z,46.97
2024-02-08T16:38:04.748Z,46.44
2024-02-08T16:39:04.816Z,46.59
2024-02-08T16:40:04.826Z,46.44
2024-02-08T16:41:04.881Z,46.44
2024-02-08T16:42:04.942Z,46.47
2024-02-08T16:43:05.005Z,46.45
2024-02-08T16:44:05.091Z,46.46
2024-02-08T16:45:05.090Z,46.31
2024-02-08T16:46:05.107Z,46.34
2024-02-08T16:47:05.120Z,46.39
2024-02-08T16:48:05.205Z,46.39
2024-02-08T16:49:05.389Z,46.53
2024-02-08T16:50:05.290Z,46.82
2024-02-08T16:51:05.370Z,46.92
2024-02-08T16:52:06.053Z,47.21
2024-02-08T16:53:05.465Z,46.95
2024-02-08T16:54:05.418Z,46.85
2024-02-08T16:55:05.519Z,47.07
2024-02-08T16:56:08.577Z,47.30
2024-02-08T16:57:05.502Z,47.37
2024-02-08T16:58:05.536Z,47.22
2024-02-08T16:59:05.522Z,47.22
2024-02-08T17:00:05.508Z,47.49
2024-02-08T17:01:05.578Z,47.29
2024-02-08T17:02:05.877Z,47.33
2024-02-08T17:03:05.933Z,47.33
2024-02-08T17:04:05.552Z,47.17
2024-02-08T17:05:05.546Z,47.41
2024-02-08T17:06:05.496Z,47.12
2024-02-08T17:07:05.625Z,47.24
2024-02-08T17:08:05.594Z,47.50
2024-02-08T17:09:05.527Z,47.80
2024-02-08T17:10:06.988Z,47.62
2024-02-08T17:11:05.524Z,47.65
2024-02-08T17:12:05.532Z,47.78
2024-02-08T17:13:05.566Z,47.78
2024-02-08T17:14:05.512Z,47.68
2024-02-08T17:15:05.504Z,47.85
2024-02-08T17:16:05.565Z,48.09
2024-02-08T17:17:05.565Z,48.17
2024-02-08T17:18:05.532Z,48.45
2024-02-08T17:19:05.617Z,48.26
2024-02-08T17:20:05.679Z,48.08
2024-02-08T17:21:05.540Z,48.05
2024-02-08T17:22:05.541Z,48.03
2024-02-08T17:23:05.542Z,48.21
2024-02-08T17:24:07.597Z,47.94
2024-02-08T17:25:05.582Z,48.00
2024-02-08T17:26:05.559Z,48.05
2024-02-08T17:27:05.562Z,48.73
2024-02-08T17:28:05.603Z,49.18
2024-02-08T17:29:05.594Z,49.48
2024-02-08T17:30:05.670Z,49.80
2024-02-08T17:31:06.671Z,49.62
2024-02-08T17:32:05.716Z,49.68
2024-02-08T17:33:05.797Z,49.63
2024-02-08T17:34:05.860Z,49.61
2024-02-08T17:35:05.925Z,49.46
2024-02-08T17:36:05.960Z,49.84
2024-02-08T17:37:05.960Z,49.51
2024-02-08T17:38:05.899Z,49.95
2024-02-08T17:39:05.972Z,50.25
2024-02-08T17:40:06.000Z,50.18
2024-02-08T17:41:06.072Z,50.21
2024-02-08T17:42:06.097Z,50.35
2024-02-08T17:43:06.610Z,50.31
2024-02-08T17:44:06.199Z,50.09
2024-02-08T17:45:06.202Z,50.10
2024-02-08T17:46:06.278Z,49.67
2024-02-08T17:47:06.314Z,49.72
2024-02-08T17:48:06.460Z,49.71
2024-02-08T17:49:14.538Z,49.42
2024-02-08T17:50:14.570Z,49.27
2024-02-08T17:51:14.474Z,49.70
2024-02-08T17:52:14.622Z,50.01
2024-02-08T17:53:14.733Z,49.77
2024-02-08T17:54:14.808Z,49.66
2024-02-08T17:55:14.804Z,49.67
2024-02-08T17:56:14.779Z,49.61
2024-02-08T17:57:14.781Z,49.52
2024-02-08T17:58:14.842Z,49.96
2024-02-08T17:59:14.774Z,50.00
2024-02-08T18:00:14.776Z,50.44
2024-02-08T18:01:14.827Z,50.66
2024-02-08T18:02:14.793Z,50.28
2024-02-08T18:03:14.782Z,49.90
2024-02-08T18:04:14.851Z,50.05
2024-02-08T18:05:14.884Z,49.74
2024-02-08T18:06:14.830Z,49.65
2024-02-08T18:07:14.899Z,50.09
2024-02-08T18:08:14.883Z,49.68
2024-02-08T18:09:14.810Z,49.84
2024-02-08T18:10:14.855Z,49.96
2024-02-08T18:11:14.794Z,50.46
2024-02-08T18:12:14.911Z,50.37
2024-02-08T18:13:14.897Z,50.08
2024-02-08T18:14:14.801Z,49.52
2024-02-08T18:15:14.800Z,49.64
2024-02-08T18:16:14.841Z,49.44
2024-02-08T18:17:14.854Z,49.17
2024-02-08T18:18:14.900Z,49.11
2024-02-08T18:19:14.922Z,49.14
2024-02-08T18:20:14.830Z,49.38
2024-02-08T18:21:15.264Z,49.42
2024-02-08T18:22:14.861Z,49.30
2024-02-08T18:23:14.805Z,49.32
2024-02-08T18:24:14.826Z,49.19
2024-02-08T18:25:14.840Z,49.31
2024-02-08T18:26:14.864Z,49.69
2024-02-08T18:27:14.846Z,49.35
2024-02-08T18:28:14.912Z,49.34
2024-02-08T18:29:14.845Z,49.26
2024-02-08T18:30:14.832Z,49.06
2024-02-08T18:31:14.895Z,49.13
2024-02-08T18:32:14.831Z,49.11
2024-02-08T18:33:15.013Z,49.31
2024-02-08T18:34:14.892Z,49.28
2024-02-08T18:35:15.066Z,49.71
2024-02-08T18:36:14.861Z,50.09
2024-02-08T18:37:14.848Z,50.12
2024-02-08T18:38:14.903Z,50.00
2024-02-08T18:39:14.955Z,50.22
2024-02-08T18:40:15.051Z,50.76
2024-02-08T18:41:15.064Z,50.37
2024-02-08T18:42:15.126Z,50.24
2024-02-08T18:43:15.250Z,50.32
2024-02-08T18:44:15.224Z,50.31
2024-02-08T18:45:15.284Z,50.07
2024-02-08T18:46:15.403Z,50.23
2024-02-08T18:47:15.437Z,50.65
2024-02-08T18:48:15.627Z,50.73
2024-02-08T18:49:15.544Z,50.71
2024-02-08T18:50:15.700Z,50.60
2024-02-08T18:51:15.615Z,50.57
2024-02-08T18:52:15.726Z,50.84
2024-02-08T18:53:15.741Z,50.70
2024-02-08T18:54:15.750Z,50.67
2024-02-08T18:55:15.788Z,51.28
2024-02-08T18:56:15.793Z,51.41
2024-02-08T18:57:15.805Z,51.00
2024-02-08T18:58:15.958Z,51.08
2024-02-08T18:59:15.970Z,51.32
2024-02-08T19:00:15.994Z,51.72
2024-02-08T19:01:16.152Z,51.62
2024-02-08T19:02:16.104Z,52.31
2024-02-08T19:03:16.225Z,52.39
2024-02-08T19:04:16.195Z,52.69
2024-02-08T19:05:16.373Z,52.36
2024-02-08T19:06:16.913Z,52.50
2024-02-08T19:07:16.322Z,52.49
2024-02-08T19:08:16.291Z,52.33
2024-02-08T19:09:16.390Z,51.95
2024-02-08T19:10:16.380Z,52.20
2024-02-08T19:11:16.415Z,52.06
2024-02-08T19:12:16.482Z,51.92
2024-02-08T19:13:16.551Z,52.17
2024-02-08T19:14:16.598Z,51.86
2024-02-08T19:15:16.601Z,52.67
2024-02-08T19:16:17.117Z,46.84
2024-02-08T19:17:16.795Z,51.85
2024-02-08T19:18:16.821Z,53.05
2024-02-08T19:19:16.878Z,53.07
2024-02-08T19:20:16.813Z,52.77
2024-02-08T19:21:16.807Z,53.15
2024-02-08T19:22:16.918Z,52.82
2024-02-08T19:23:16.842Z,52.93
2024-02-08T19:24:16.902Z,53.03
2024-02-08T19:25:16.958Z,52.51
2024-02-08T19:26:16.917Z,52.65
2024-02-08T19:27:16.958Z,54.51
2024-02-08T19:28:17.071Z,54.53
2024-02-08T19:29:17.053Z,54.12
2024-02-08T19:30:17.085Z,55.03
2024-02-08T19:31:17.166Z,54.48
2024-02-08T19:32:17.159Z,54.23
2024-02-08T19:33:17.224Z,53.69
2024-02-08T19:34:17.327Z,54.79
2024-02-08T19:35:17.355Z,54.59
2024-02-08T19:36:17.316Z,54.17
2024-02-08T19:37:17.394Z,54.19
2024-02-08T19:38:17.390Z,54.17
2024-02-08T19:39:17.354Z,53.62
2024-02-08T19:40:17.404Z,54.03
2024-02-08T19:41:17.433Z,53.98
2024-02-08T19:42:17.467Z,53.76
2024-02-08T19:43:17.593Z,53.07
2024-02-08T19:44:17.530Z,52.89
2024-02-08T19:45:18.033Z,52.78
2024-02-08T19:46:17.621Z,52.96
2024-02-08T19:47:17.699Z,53.38
2024-02-08T19:48:17.846Z,53.47
2024-02-08T19:49:17.825Z,53.08
2024-02-08T19:50:17.891Z,53.56
2024-02-08T19:51:17.790Z,53.28
2024-02-08T19:52:18.048Z,54.16
2024-02-08T19:53:17.821Z,53.77
2024-02-08T19:54:17.898Z,53.91
2024-02-08T19:55:17.964Z,51.72
2024-02-08T19:56:17.974Z,48.42
2024-02-08T19:57:17.992Z,54.01
2024-02-08T19:58:18.128Z,49.39
2024-02-08T19:59:18.306Z,45.55
2024-02-08T20:00:18.114Z,46.11
2024-02-08T20:01:18.242Z,47.70
2024-02-08T20:02:18.274Z,50.10
2024-02-08T20:03:18.208Z,51.00
2024-02-08T20:04:18.257Z,50.32
2024-02-08T20:05:18.413Z,46.81
2024-02-08T20:06:18.379Z,47.88
2024-02-08T20:07:18.388Z,50.02
2024-02-08T20:08:18.481Z,50.63
2024-02-08T20:09:18.517Z,50.40
2024-02-08T20:10:18.542Z,49.40
2024-02-08T20:11:18.632Z,48.86
2024-02-08T20:12:18.658Z,48.92
2024-02-08T20:13:18.749Z,49.04
2024-02-08T20:14:18.691Z,49.53
2024-02-08T20:15:18.850Z,47.25
2024-02-08T20:16:18.771Z,49.29
2024-02-08T20:17:18.817Z,45.84
2024-02-08T20:18:19.475Z,43.38
2024-02-08T20:19:18.980Z,43.06
2024-02-08T20:20:18.911Z,42.93
2024-02-08T20:21:18.941Z,42.53
2024-02-08T20:22:19.060Z,41.71
2024-02-08T20:23:18.998Z,43.14
2024-02-08T20:24:19.053Z,42.81
2024-02-08T20:25:19.087Z,42.59
2024-02-08T20:26:19.126Z,41.84
2024-02-08T20:27:19.263Z,42.18
2024-02-08T20:28:19.240Z,47.58
2024-02-08T20:29:19.215Z,47.35
2024-02-08T20:30:19.244Z,45.79
2024-02-08T20:31:19.360Z,46.40
2024-02-08T20:32:19.327Z,45.09
2024-02-08T20:33:19.427Z,46.65
2024-02-08T20:34:19.482Z,46.62
2024-02-08T20:35:19.489Z,46.33
2024-02-08T20:36:19.505Z,46.46
2024-02-08T20:37:19.630Z,46.20
2024-02-08T20:38:19.718Z,44.18
2024-02-08T20:39:19.892Z,43.48
2024-02-08T20:40:19.636Z,42.69
2024-02-08T20:41:19.667Z,45.00
2024-02-08T20:42:19.690Z,43.61
2024-02-08T20:43:19.792Z,42.62
2024-02-08T20:44:20.828Z,42.29
2024-02-08T20:45:19.882Z,42.08
2024-02-08T20:46:19.910Z,41.77
2024-02-08T20:47:19.881Z,41.46
2024-02-08T20:48:19.931Z,41.46
2024-02-08T20:49:20.031Z,41.59
2024-02-08T20:50:19.989Z,41.36
2024-02-08T20:51:20.061Z,41.12
2024-02-08T20:52:20.112Z,40.85
2024-02-08T20:53:20.106Z,40.58
2024-02-08T20:54:20.197Z,40.61
2024-02-08T20:55:20.214Z,40.22
2024-02-08T20:56:20.239Z,40.26
2024-02-08T20:57:20.286Z,40.23
2024-02-08T20:58:20.346Z,40.51
2024-02-08T20:59:20.355Z,40.54
2024-02-08T21:00:20.429Z,40.59
2024-02-08T21:01:20.530Z,40.85
2024-02-08T21:02:20.476Z,40.73
2024-02-08T21:03:20.540Z,40.87
2024-02-08T21:04:20.559Z,40.66
2024-02-08T21:05:20.632Z,40.64
2024-02-08T21:06:20.636Z,40.72
2024-02-08T21:07:20.710Z,40.66
2024-02-08T21:08:20.691Z,40.30
2024-02-08T21:09:20.769Z,40.50
2024-02-08T21:10:20.845Z,40.20
2024-02-08T21:11:20.841Z,39.94
2024-02-08T21:12:20.839Z,39.79
2024-02-08T21:13:21.131Z,40.08
2024-02-08T21:14:20.980Z,39.89
2024-02-08T21:15:20.897Z,40.03
2024-02-08T21:16:21.383Z,40.77
2024-02-08T21:17:21.003Z,40.45
2024-02-08T21:18:21.080Z,40.32
2024-02-08T21:19:21.027Z,40.22
2024-02-08T21:20:21.312Z,40.08
2024-02-08T21:21:21.111Z,40.83
2024-02-08T21:22:21.189Z,40.84
2024-02-08T21:23:21.269Z,40.58
2024-02-08T21:24:21.241Z,41.09
2024-02-08T21:25:21.558Z,40.76
2024-02-08T21:26:21.966Z,40.63
2024-02-08T21:27:21.513Z,41.00
2024-02-08T21:28:21.538Z,41.05
2024-02-08T21:29:21.441Z,41.01
2024-02-08T21:30:21.478Z,41.72
2024-02-08T21:31:21.557Z,42.14
2024-02-08T21:32:21.534Z,42.53
2024-02-08T21:33:21.700Z,42.92
2024-02-08T21:34:21.721Z,42.75
2024-02-08T21:35:21.640Z,42.82
2024-02-08T21:36:21.682Z,42.92
2024-02-08T21:37:21.750Z,42.50
2024-02-08T21:38:21.768Z,41.91
2024-02-08T21:39:21.806Z,41.80
2024-02-08T21:40:21.881Z,41.58
2024-02-08T21:41:21.871Z,41.57
2024-02-08T21:42:21.898Z,41.93
2024-02-08T21:43:21.999Z,41.71
2024-02-08T21:44:22.095Z,42.12
2024-02-08T21:45:22.011Z,42.40
2024-02-08T21:46:22.226Z,42.45
2024-02-08T21:47:22.073Z,42.51
2024-02-08T21:48:22.152Z,42.60
2024-02-08T21:49:24.005Z,42.50
2024-02-08T21:50:22.212Z,42.56
2024-02-08T21:51:22.272Z,42.16
2024-02-08T21:52:22.315Z,42.17
2024-02-08T21:53:22.346Z,42.10
2024-02-08T21:54:22.386Z,42.23
2024-02-08T21:55:22.481Z,42.72
2024-02-08T21:56:22.511Z,42.85
2024-02-08T21:57:22.496Z,42.58
2024-02-08T21:58:22.551Z,42.47
2024-02-08T21:59:22.574Z,42.26
2024-02-08T22:00:22.598Z,42.20
2024-02-08T22:01:38.107Z,42.16
2024-02-08T22:02:22.694Z,41.83
2024-02-08T22:03:22.622Z,42.29
2024-02-08T22:04:22.650Z,42.27
2024-02-08T22:05:22.810Z,42.14
2024-02-08T22:06:22.792Z,41.94
2024-02-08T22:07:22.748Z,42.11
2024-02-08T22:08:22.643Z,42.12
2024-02-08T22:09:22.635Z,42.18
2024-02-08T22:10:22.692Z,42.26
2024-02-08T22:11:22.634Z,42.39
2024-02-08T22:12:22.655Z,42.24
2024-02-08T22:13:22.710Z,42.16
2024-02-08T22:14:22.662Z,42.38
2024-02-08T22:15:22.643Z,42.52
2024-02-08T22:16:22.676Z,42.15
2024-02-08T22:17:22.670Z,42.61
2024-02-08T22:18:22.752Z,42.57
2024-02-08T22:19:22.734Z,41.84
2024-02-08T22:20:22.637Z,42.07
2024-02-08T22:21:22.651Z,41.90
2024-02-08T22:22:22.697Z,41.85
2024-02-08T22:23:22.666Z,41.60
2024-02-08T22:24:22.661Z,42.08
2024-02-08T22:25:22.775Z,41.60
2024-02-08T22:26:22.685Z,41.38
2024-02-08T22:27:22.684Z,41.15
2024-02-08T22:28:22.833Z,41.71
2024-02-08T22:29:22.848Z,41.75
2024-02-08T22:30:22.671Z,41.83
2024-02-08T22:31:22.756Z,41.93
2024-02-08T22:32:22.668Z,41.64
2024-02-08T22:33:22.704Z,42.28
2024-02-08T22:34:22.803Z,42.48
2024-02-08T22:35:22.820Z,41.86
2024-02-08T22:36:22.696Z,41.75
2024-02-08T22:37:22.707Z,41.56
2024-02-08T22:38:22.705Z,41.51
2024-02-08T22:39:22.707Z,42.20
2024-02-08T22:40:22.733Z,42.12
2024-02-08T22:41:22.738Z,42.04
2024-02-08T22:42:22.689Z,41.42
2024-02-08T22:43:22.755Z,41.92
2024-02-08T22:44:22.717Z,42.49
2024-02-08T22:45:22.745Z,42.23
2024-02-08T22:46:22.768Z,42.37
2024-02-08T22:47:22.739Z,42.34
2024-02-08T22:48:22.708Z,42.01
2024-02-08T22:49:22.815Z,42.49
2024-02-08T22:50:22.811Z,42.75
2024-02-08T22:51:22.733Z,42.72
2024-02-08T22:52:22.753Z,42.89
2024-02-08T22:53:22.742Z,43.15
2024-02-08T22:54:22.802Z,43.54
2024-02-08T22:55:22.876Z,43.13
2024-02-08T22:56:22.928Z,43.17
2024-02-08T22:57:22.904Z,43.62
2024-02-08T22:58:24.130Z,43.51
2024-02-08T22:59:23.229Z,42.76
2024-02-08T23:00:23.125Z,42.68
2024-02-08T23:01:23.315Z,42.32
2024-02-08T23:02:23.163Z,43.20
2024-02-08T23:03:23.269Z,43.01
2024-02-08T23:04:23.482Z,42.95
2024-02-08T23:05:23.447Z,42.56
2024-02-08T23:06:23.440Z,42.33
2024-02-08T23:07:23.399Z,42.59
2024-02-08T23:08:23.405Z,42.53
2024-02-08T23:09:23.480Z,42.35
2024-02-08T23:10:23.546Z,42.82
2024-02-08T23:11:23.555Z,42.29
2024-02-08T23:12:23.582Z,42.59
2024-02-08T23:13:23.676Z,43.00
2024-02-08T23:14:23.731Z,43.10
2024-02-08T23:15:23.726Z,42.89
2024-02-08T23:16:23.804Z,42.63
2024-02-08T23:17:23.832Z,42.74
2024-02-08T23:18:24.575Z,43.12
2024-02-08T23:19:24.014Z,42.90
2024-02-08T23:20:23.966Z,42.66
2024-02-08T23:21:23.995Z,42.85
2024-02-08T23:22:26.974Z,42.99
2024-02-08T23:23:24.053Z,43.42
2024-02-08T23:24:24.302Z,43.47
2024-02-08T23:25:24.053Z,43.29
2024-02-08T23:26:24.067Z,43.25
2024-02-08T23:27:24.055Z,43.99
2024-02-08T23:28:24.100Z,43.69
2024-02-08T23:29:24.038Z,43.62
2024-02-08T23:30:24.038Z,43.49
2024-02-08T23:31:24.095Z,43.86
2024-02-08T23:32:24.038Z,43.56
2024-02-08T23:33:24.522Z,43.23
2024-02-08T23:34:24.228Z,43.07
2024-02-08T23:35:24.038Z,42.67
2024-02-08T23:36:24.069Z,42.73
2024-02-08T23:37:24.993Z,42.86
2024-02-08T23:38:24.100Z,43.57
2024-02-08T23:39:24.075Z,43.64
2024-02-08T23:40:24.114Z,43.57
2024-02-08T23:41:24.074Z,43.23
2024-02-08T23:42:24.063Z,43.58
2024-02-08T23:43:24.080Z,43.05
2024-02-08T23:44:24.095Z,43.33
2024-02-08T23:45:24.088Z,43.23
2024-02-08T23:46:24.134Z,43.02
2024-02-08T23:47:24.100Z,42.38
2024-02-08T23:48:24.145Z,43.35
2024-02-08T23:49:24.124Z,43.16
2024-02-08T23:50:24.074Z,42.90
2024-02-08T23:51:24.080Z,42.82
2024-02-08T23:52:24.124Z,43.35
2024-02-08T23:53:24.112Z,43.64
2024-02-08T23:54:24.106Z,43.16
2024-02-08T23:55:24.186Z,43.29
2024-02-08T23:56:24.121Z,43.10
2024-02-08T23:57:24.139Z,43.26
2024-02-08T23:58:24.132Z,43.45
2024-02-08T23:59:24.126Z,43.28
